Wednesday, December 12, 2018, 11:31 PM EST
Back to Local

KPVD, Providence Green State Airport

Location: Warwick, RI, United States Lat: 41.733
Local Time: 11:31 PM EST ( 4:31 GMT) Lon: -71.433
Time Zone: US/Eastern Elev: 55 ft

Show me the last for .
Show Decoded

2018-12-12 22:51 METAR KPVD 130351Z 02007KT 10SM SCT250 M04/M16 A3032 RMK AO2 SLP268 T10441156 =
2018-12-12 21:51 METAR KPVD 130251Z 01012KT 10SM BKN250 M03/M16 A3031 RMK AO2 SLP263 T10331156
                 51034 =
2018-12-12 20:51 METAR KPVD 130151Z 35006KT 10SM BKN250 M03/M11 A3027 RMK AO2 SLP252 T10281106 =
2018-12-12 19:51 METAR KPVD 130051Z 34006KT 10SM BKN250 M01/M11 A3024 RMK AO2 SLP242 T10111111 =
2018-12-12 18:51 METAR KPVD 122351Z 34008KT 10SM BKN250 M01/M11 A3021 RMK AO2 SLP229 T10061111
                 10033 21011 51034 =
2018-12-12 17:51 METAR KPVD 122251Z 35007KT 10SM FEW045 SCT250 00/M10 A3019 RMK AO2 SLP222
                 T00001100 =
2018-12-12 16:51 METAR KPVD 122151Z 36007KT 10SM FEW045 SCT250 00/M09 A3015 RMK AO2 SLP211
                 T00001094 =
2018-12-12 15:51 METAR KPVD 122051Z 34009KT 10SM FEW045 FEW250 02/M10 A3011 RMK AO2 SLP195
                 T00221100 53019 =
2018-12-12 14:51 METAR KPVD 121951Z 33011KT 10SM FEW045 FEW250 03/M09 A3007 RMK AO2 SLP184
                 T00281094 =
2018-12-12 13:51 METAR KPVD 121851Z 31012KT 10SM FEW045 03/M09 A3006 RMK AO2 SLP180 T00331094 =
2018-12-12 12:51 METAR KPVD 121751Z 31015G21KT 10SM FEW055 03/M10 A3005 RMK AO2 SLP176 T00331100
                 10033 21022 53005 =
2018-12-12 11:51 METAR KPVD 121651Z 33011G19KT 10SM FEW050 03/M09 A3004 RMK AO2 SLP174 T00331089
                 =
2018-12-12 10:51 METAR KPVD 121551Z 31011G17KT 10SM FEW040 02/M08 A3004 RMK AO2 SLP173 T00221078
                 =
2018-12-12 09:51 METAR KPVD 121451Z 32012KT 10SM FEW070 01/M07 A3004 RMK AO2 SLP172 T00111072
                 51020 =
2018-12-12 08:51 METAR KPVD 121351Z 32010KT 10SM FEW025 BKN070 M01/M07 A3003 RMK AO2 SLP168
                 T10061072 =
2018-12-12 07:51 METAR KPVD 121251Z 31009KT 10SM SCT055 SCT075 M02/M08 A3000 RMK AO2 SLP159
                 T10171078 =
2018-12-12 06:51 METAR KPVD 121151Z 31006KT 10SM BKN080 M02/M08 A2998 RMK AO2 SLP151 T10221083
                 10000 21033 53025 =
2018-12-12 05:51 METAR KPVD 121051Z 31007KT 10SM FEW300 M03/M09 A2995 RMK AO2 SLP143 T10281089 =
2018-12-12 04:51 METAR KPVD 120951Z 33010KT 10SM CLR M02/M08 A2993 RMK AO2 SLP133 T10221083 =
2018-12-12 03:51 METAR KPVD 120851Z 32006KT 10SM CLR M01/M08 A2990 RMK AO2 SLP126 T10111078 52007
                 =
2018-12-12 02:51 METAR KPVD 120751Z 34008KT 10SM OVC060 M01/M09 A2990 RMK AO2 SLP124 T10061089 =
2018-12-12 01:51 METAR KPVD 120651Z 36011KT 10SM OVC060 M01/M08 A2989 RMK AO2 SLP121 T10061078 =
2018-12-12 00:51 METAR KPVD 120551Z 35007KT 10SM OVC055 00/M06 A2988 RMK AO2 SNE0452 SLP119 P0000
                 60000 T00001061 10011 21006 56016 =
2018-12-11 23:51 METAR KPVD 120451Z COR 35006KT 9SM -SN OVC049 01/M04 A2989 RMK AO2 SLP123 P0000
                 LAST T00061044 400221089 =

Support USWX by starting your Amazon purchase here.